Time;durP1;ratioP1;P1;durP2;ratioP2;P2;SDS_P1;SDS_P2;PMS_P1;PMS_P2;Temp;Humidity;BMP_temperature;BMP_pressure;BME280_temperature;BME280_humidity;BME280_pressure;Samples;Min_cycle;Max_cycle;Signal;HPM_P1;HPM_P2
2022/11/20 00:02:24;;;;;;;15.77;7.65;;;;;;;-2.88;100.00;101598.72;7367530;19;20086;-74
2022/11/20 00:04:53;;;;;;;12.57;7.43;;;;;;;-2.93;100.00;101612.84;7366479;19;20319;-74
2022/11/20 00:07:23;;;;;;;17.20;9.15;;;;;;;-2.97;100.00;101609.16;7367625;19;20018;-73
2022/11/20 00:09:52;;;;;;;19.90;8.48;;;;;;;-2.98;100.00;101612.47;7369636;19;20043;-74
2022/11/20 00:12:22;;;;;;;17.85;8.75;;;;;;;-3.01;100.00;101613.13;7369100;19;20635;-73
2022/11/20 00:14:54;;;;;;;16.33;8.32;;;;;;;-3.03;100.00;101604.41;7368970;19;20007;-73
2022/11/20 00:17:24;;;;;;;14.45;7.05;;;;;;;-3.05;100.00;101590.56;7368772;19;20015;-73
2022/11/20 00:19:53;;;;;;;17.40;8.43;;;;;;;-3.10;100.00;101591.88;7370224;19;20007;-73
2022/11/20 00:22:23;;;;;;;20.65;8.43;;;;;;;-3.13;100.00;101591.66;7367857;19;20007;-73
2022/11/20 00:24:53;;;;;;;16.98;8.23;;;;;;;-3.20;100.00;101594.53;7369657;19;20017;-74
2022/11/20 00:27:23;;;;;;;21.90;8.90;;;;;;;-3.24;100.00;101587.34;7368705;19;20132;-73
2022/11/20 00:29:55;;;;;;;15.98;8.32;;;;;;;-3.26;100.00;101588.00;7368455;19;20015;-73
2022/11/20 00:32:24;;;;;;;16.13;7.90;;;;;;;-3.30;100.00;101595.44;7370167;19;20022;-74
2022/11/20 00:34:54;;;;;;;17.02;8.77;;;;;;;-3.28;100.00;101597.25;7370714;19;20002;-74
2022/11/20 00:37:24;;;;;;;15.77;8.88;;;;;;;-3.30;100.00;101590.31;7369310;19;20018;-74
2022/11/20 00:39:53;;;;;;;15.07;8.70;;;;;;;-3.32;100.00;101586.75;7370200;19;20014;-74
2022/11/20 00:42:23;;;;;;;14.68;7.70;;;;;;;-3.32;100.00;101578.16;7368953;19;20051;-74
2022/11/20 00:44:55;;;;;;;18.15;7.82;;;;;;;-3.30;100.00;101576.59;7369161;19;20039;-74
2022/11/20 00:47:25;;;;;;;18.58;8.45;;;;;;;-3.28;100.00;101577.63;7367169;19;20021;-74
2022/11/20 00:49:55;;;;;;;16.48;9.68;;;;;;;-3.23;100.00;101578.88;7366758;19;20007;-74
2022/11/20 00:52:24;;;;;;;16.50;9.57;;;;;;;-3.22;100.00;101580.66;7366671;19;20056;-74
2022/11/20 00:54:54;;;;;;;14.18;8.00;;;;;;;-3.22;100.00;101587.47;7365820;19;20018;-73
2022/11/20 00:57:23;;;;;;;16.58;8.88;;;;;;;-3.24;100.00;101582.22;7368520;19;20010;-74
2022/11/20 00:59:56;;;;;;;18.10;7.95;;;;;;;-3.28;100.00;101580.19;7366324;19;20021;-73
2022/11/20 01:02:25;;;;;;;20.33;8.95;;;;;;;-3.32;100.00;101576.47;7365920;19;20018;-74
2022/11/20 01:04:55;;;;;;;15.90;8.07;;;;;;;-3.35;100.00;101583.03;7367275;19;21260;-74
2022/11/20 01:07:24;;;;;;;19.05;8.50;;;;;;;-3.37;100.00;101579.44;7365358;19;20021;-74
2022/11/20 01:09:54;;;;;;;15.00;8.07;;;;;;;-3.39;100.00;101593.81;7368911;19;20021;-74
2022/11/20 01:12:24;;;;;;;15.48;7.82;;;;;;;-3.39;100.00;101593.81;7366522;19;20039;-74
2022/11/20 01:14:56;;;;;;;18.83;8.88;;;;;;;-3.40;100.00;101594.59;7369036;19;20110;-74
2022/11/20 01:17:25;;;;;;;16.17;8.20;;;;;;;-3.44;100.00;101579.72;7367774;19;20018;-75
2022/11/20 01:19:55;;;;;;;15.25;8.50;;;;;;;-3.48;100.00;101575.13;7366335;19;20467;-74
2022/11/20 01:22:25;;;;;;;17.27;9.07;;;;;;;-3.47;100.00;101565.00;7364372;19;20063;-74
2022/11/20 01:24:54;;;;;;;15.65;8.27;;;;;;;-3.43;100.00;101553.31;7370092;19;20019;-74
2022/11/20 01:27:24;;;;;;;16.60;9.80;;;;;;;-3.41;100.00;101572.28;7374759;19;20021;-74
2022/11/20 01:29:56;;;;;;;16.25;7.88;;;;;;;-3.43;100.00;101573.81;7376878;19;20010;-74
2022/11/20 01:32:29;;;;;;;15.93;7.90;;;;;;;-3.46;100.00;101578.72;7375441;19;20017;-74
2022/11/20 01:34:59;;;;;;;19.83;9.27;;;;;;;-3.49;100.00;101573.34;7376952;19;20018;-74
2022/11/20 01:37:29;;;;;;;20.25;9.05;;;;;;;-3.53;100.00;101577.31;7377103;19;20010;-74
2022/11/20 01:39:58;;;;;;;17.35;8.57;;;;;;;-3.54;100.00;101572.06;7375711;19;20023;-75
2022/11/20 01:45:40;;;;;;;18.83;9.13;;;;;;;-3.62;100.00;101568.88;7376660;19;20025;-74
2022/11/20 01:48:13;;;;;;;18.42;9.45;;;;;;;-3.65;100.00;101566.97;7375480;19;20014;-74
2022/11/20 01:50:44;;;;;;;18.52;9.93;;;;;;;-3.64;100.00;101568.75;7376770;19;20031;-74
2022/11/20 01:53:19;;;;;;;20.90;9.30;;;;;;;-3.68;100.00;101564.16;7375051;19;20034;-74
2022/11/20 01:55:52;;;;;;;18.95;9.85;;;;;;;-3.67;100.00;101563.38;7371384;19;20048;-74
2022/11/20 01:58:27;;;;;;;20.23;10.02;;;;;;;-3.67;100.00;101559.91;7372371;19;20084;-74
2022/11/20 02:00:57;;;;;;;17.08;9.05;;;;;;;-3.69;100.00;101569.16;7373228;19;20019;-74
2022/11/20 02:03:30;;;;;;;18.58;10.88;;;;;;;-3.73;100.00;101575.69;7367908;19;20066;-74
2022/11/20 02:06:07;;;;;;;19.08;8.15;;;;;;;-3.76;100.00;101572.00;7371010;19;20027;-74
2022/11/20 02:08:38;;;;;;;16.60;9.30;;;;;;;-3.79;100.00;101572.63;7372832;19;20015;-74
2022/11/20 02:11:08;;;;;;;16.45;8.60;;;;;;;-3.83;100.00;101570.59;7370886;19;20024;-75
2022/11/20 02:13:44;;;;;;;15.52;8.93;;;;;;;-3.84;100.00;101571.34;7373166;19;20026;-75
2022/11/20 02:16:17;;;;;;;19.60;9.10;;;;;;;-3.85;100.00;101571.22;7375192;19;20014;-76
2022/11/20 02:18:50;;;;;;;21.10;8.93;;;;;;;-3.87;100.00;101570.22;7373335;19;20010;-75
2022/11/20 02:21:39;;;;;;;16.92;8.75;;;;;;;-3.92;100.00;101568.94;7371108;19;20003;-76
2022/11/20 02:24:16;;;;;;;17.92;8.68;;;;;;;-3.95;100.00;101565.34;7372840;19;20019;-76
2022/11/20 02:26:52;;;;;;;17.38;8.60;;;;;;;-3.99;100.00;101564.97;7371731;19;20018;-76
2022/11/20 02:29:28;;;;;;;18.40;9.30;;;;;;;-3.99;100.00;101557.28;7374508;19;20011;-75
2022/11/20 02:32:00;;;;;;;18.27;8.93;;;;;;;-4.03;100.00;101550.13;7372142;19;20014;-76
2022/11/20 02:34:30;;;;;;;17.35;8.95;;;;;;;-4.02;100.00;101557.94;7372329;19;20022;-76
2022/11/20 02:37:01;;;;;;;13.65;7.93;;;;;;;-4.04;100.00;101561.13;7374846;19;20034;-75
2022/11/20 02:39:33;;;;;;;20.48;10.05;;;;;;;-4.02;100.00;101554.47;7369990;19;20028;-76
2022/11/20 02:42:04;;;;;;;20.08;10.68;;;;;;;-4.05;100.00;101556.78;7373555;19;20742;-76
2022/11/20 02:44:34;;;;;;;23.75;10.38;;;;;;;-4.04;100.00;101548.31;7372440;19;20025;-76
2022/11/20 02:47:04;;;;;;;17.10;8.98;;;;;;;-4.04;100.00;101548.31;7368410;19;20014;-75
2022/11/20 02:49:33;;;;;;;17.27;8.45;;;;;;;-4.07;100.00;101540.38;7369348;19;20011;-75
2022/11/20 02:52:04;;;;;;;18.15;9.23;;;;;;;-4.07;100.00;101537.81;7370715;19;20017;-75
2022/11/20 02:54:36;;;;;;;15.95;9.35;;;;;;;-4.01;100.00;101534.09;7367175;19;20056;-73
2022/11/20 02:57:07;;;;;;;20.67;10.20;;;;;;;-3.98;100.00;101528.34;7371167;19;20034;-73
2022/11/20 02:59:36;;;;;;;19.30;9.95;;;;;;;-3.95;100.00;101531.16;7369014;19;20014;-73
2022/11/20 03:02:06;;;;;;;19.17;9.02;;;;;;;-3.90;100.00;101537.53;7368988;19;20897;-74
2022/11/20 03:04:36;;;;;;;22.00;9.75;;;;;;;-3.94;100.00;101530.38;7370744;19;20732;-74
2022/11/20 03:07:06;;;;;;;19.33;10.25;;;;;;;-3.97;100.00;101528.47;7368782;19;20166;-73
2022/11/20 03:09:39;;;;;;;17.33;8.63;;;;;;;-3.99;100.00;101521.41;7369239;19;20055;-74
2022/11/20 03:12:09;;;;;;;15.50;8.83;;;;;;;-4.02;100.00;101498.13;7371463;19;20025;-74
2022/11/20 03:14:39;;;;;;;16.35;9.50;;;;;;;-3.99;100.00;101499.25;7371620;19;20035;-74
2022/11/20 03:17:09;;;;;;;16.83;9.05;;;;;;;-3.99;100.00;101503.47;7369871;19;20014;-74
2022/11/20 03:19:39;;;;;;;29.13;11.65;;;;;;;-4.03;100.00;101509.13;7368152;19;20006;-74
2022/11/20 03:22:09;;;;;;;20.45;10.23;;;;;;;-4.09;100.00;101512.09;7373605;19;20039;-74
2022/11/20 03:24:41;;;;;;;16.55;8.23;;;;;;;-4.13;100.00;101501.47;7374174;19;20064;-73
2022/11/20 03:27:10;;;;;;;20.63;10.25;;;;;;;-4.16;100.00;101496.13;7371122;19;20011;-74
2022/11/20 03:29:40;;;;;;;14.68;7.82;;;;;;;-4.18;100.00;101495.09;7372218;19;20015;-74
2022/11/20 03:32:10;;;;;;;20.00;9.65;;;;;;;-4.17;100.00;101491.78;7368927;19;20011;-74
2022/11/20 03:34:39;;;;;;;15.18;8.82;;;;;;;-4.17;100.00;101495.22;7364989;19;20014;-74
2022/11/20 03:37:09;;;;;;;20.70;8.75;;;;;;;-4.17;100.00;101495.22;7367341;19;20010;-75
2022/11/20 03:39:41;;;;;;;19.38;10.90;;;;;;;-4.17;100.00;101494.34;7368474;19;20010;-73
2022/11/20 03:42:44;;;;;;;14.50;8.55;;;;;;;-4.19;100.00;101490.75;7370819;19;20737;-73
2022/11/20 03:45:01;;;;;;;17.83;9.50;;;;;;;-4.18;100.00;101487.41;7368283;19;20257;-74
2022/11/20 03:47:30;;;;;;;18.95;9.70;;;;;;;-4.15;100.00;101487.63;7369051;19;20014;-73
2022/11/20 03:50:00;;;;;;;16.67;8.18;;;;;;;-4.15;100.00;101493.66;7367583;19;20018;-74
2022/11/20 03:52:29;;;;;;;19.42;9.75;;;;;;;-4.17;100.00;101489.22;7366326;19;20015;-73
2022/11/20 03:55:02;;;;;;;16.42;9.15;;;;;;;-4.21;100.00;101482.94;7369184;19;20018;-74
2022/11/20 03:57:32;;;;;;;16.40;9.13;;;;;;;-4.23;100.00;101483.59;7368264;19;20017;-74
2022/11/20 04:00:02;;;;;;;18.83;9.35;;;;;;;-4.25;100.00;101475.78;7369962;19;20015;-74
2022/11/20 04:02:31;;;;;;;20.23;9.60;;;;;;;-4.24;100.00;101464.75;7364942;19;20014;-74
2022/11/20 04:05:01;;;;;;;20.08;10.18;;;;;;;-4.20;100.00;101458.22;7369766;19;20027;-73
2022/11/20 04:07:31;;;;;;;17.92;8.68;;;;;;;-4.18;100.00;101462.69;7370519;19;20007;-75
2022/11/20 04:10:03;;;;;;;21.80;9.95;;;;;;;-4.13;100.00;101450.22;7369931;19;20026;-76
2022/11/20 04:12:34;;;;;;;21.02;10.48;;;;;;;-4.10;100.00;101450.47;7370738;19;20089;-75
2022/11/20 04:15:04;;;;;;;20.63;10.40;;;;;;;-4.09;100.00;101444.59;7366533;19;20248;-75
2022/11/20 04:17:34;;;;;;;22.40;11.32;;;;;;;-4.11;100.00;101441.00;7367937;19;20010;-76
2022/11/20 04:20:05;;;;;;;26.00;11.80;;;;;;;-4.10;100.00;101435.09;7368292;19;20141;-75
2022/11/20 04:22:34;;;;;;;22.02;10.93;;;;;;;-4.07;100.00;101435.34;7368114;19;20011;-75
2022/11/20 04:25:10;;;;;;;21.25;10.45;;;;;;;-4.07;100.00;101432.78;7367335;19;20018;-75
2022/11/20 04:27:39;;;;;;;21.83;10.32;;;;;;;-4.03;100.00;101432.28;7365716;19;20018;-75
2022/11/20 04:30:10;;;;;;;18.30;11.15;;;;;;;-4.01;100.00;101436.75;7368909;19;20022;-75
2022/11/20 04:32:40;;;;;;;17.05;10.35;;;;;;;-3.99;100.00;101445.44;7370834;19;20011;-75
2022/11/20 04:35:10;;;;;;;20.58;10.60;;;;;;;-3.99;100.00;101444.56;7370325;19;20018;-74
2022/11/20 04:37:40;;;;;;;18.00;10.57;;;;;;;-3.95;100.00;101439.81;7368108;19;20021;-74
2022/11/20 04:40:13;;;;;;;20.17;9.93;;;;;;;-3.95;100.00;101438.91;7371334;19;20331;-75
2022/11/20 04:42:43;;;;;;;;;;;;;;;-3.96;100.00;101439.69;7368572;19;21328;-73
2022/11/20 04:45:12;;;;;;;22.83;9.30;;;;;;;-3.96;100.00;101444.81;7372453;19;19940;-74
2022/11/20 04:47:42;;;;;;;23.15;10.32;;;;;;;-3.99;100.00;101448.00;7373657;19;20018;-73
2022/11/20 04:50:12;;;;;;;23.17;10.95;;;;;;;-4.00;100.00;101442.75;7372573;19;20018;-73
2022/11/20 04:52:42;;;;;;;19.35;10.05;;;;;;;-4.02;100.00;101439.19;7363493;19;20044;-73
2022/11/20 04:55:14;;;;;;;22.85;10.50;;;;;;;-4.04;100.00;101435.59;7367784;19;20022;-74
2022/11/20 04:57:43;;;;;;;20.20;9.70;;;;;;;-4.02;100.00;101434.06;7369864;19;20041;-73
2022/11/20 05:00:15;;;;;;;17.95;9.52;;;;;;;-4.03;100.00;101437.41;7372940;19;20011;-73
2022/11/20 05:02:44;;;;;;;20.50;9.88;;;;;;;-4.03;100.00;101432.28;7374585;19;20093;-74
2022/11/20 05:05:14;;;;;;;19.55;10.00;;;;;;;-4.05;100.00;101428.69;7371927;19;20014;-74
2022/11/20 05:07:44;;;;;;;20.08;10.23;;;;;;;-4.05;100.00;101436.38;7374627;19;20018;-74
2022/11/20 05:10:16;;;;;;;20.25;10.48;;;;;;;-4.06;100.00;101432.03;7375012;19;20015;-74
2022/11/20 05:12:46;;;;;;;19.92;9.95;;;;;;;-4.06;100.00;101447.41;7373536;19;20049;-74
2022/11/20 05:15:16;;;;;;;20.15;9.70;;;;;;;-4.10;100.00;101438.56;7376950;19;20010;-74
2022/11/20 05:17:49;;;;;;;18.38;9.60;;;;;;;-4.11;100.00;101451.25;7375022;19;20021;-74
2022/11/20 05:20:20;;;;;;;18.45;8.93;;;;;;;-4.15;100.00;101452.66;7375291;19;20114;-74
2022/11/20 05:22:49;;;;;;;19.55;11.10;;;;;;;-4.16;100.00;101450.00;7376606;19;20018;-75
2022/11/20 05:25:21;;;;;;;17.00;9.43;;;;;;;-4.19;100.00;101449.78;7371252;19;20010;-73
2022/11/20 05:27:51;;;;;;;20.83;9.57;;;;;;;-4.23;100.00;101443.50;7376784;19;20014;-75
2022/11/20 05:30:21;;;;;;;16.20;8.63;;;;;;;-4.18;100.00;101441.31;7376379;19;20021;-76
2022/11/20 05:32:50;;;;;;;22.25;11.27;;;;;;;-4.15;100.00;101439.84;7375047;19;20018;-75
2022/11/20 05:35:20;;;;;;;21.10;10.07;;;;;;;-4.13;100.00;101439.97;7374603;19;20014;-75
2022/11/20 05:37:50;;;;;;;23.63;11.02;;;;;;;-4.14;100.00;101439.09;7376831;19;20015;-75
2022/11/20 05:40:22;;;;;;;17.60;11.30;;;;;;;-4.15;100.00;101434.75;7374423;19;20054;-75
2022/11/20 05:42:52;;;;;;;19.85;10.25;;;;;;;-4.15;100.00;101434.75;7376133;19;20081;-75
2022/11/20 05:45:21;;;;;;;19.45;9.13;;;;;;;-4.12;100.00;101421.28;7375879;19;20014;-75
2022/11/20 05:47:51;;;;;;;23.58;10.10;;;;;;;-4.09;100.00;101416.41;7376887;19;20010;-75
2022/11/20 05:50:21;;;;;;;19.35;9.80;;;;;;;-4.07;100.00;101410.63;7376065;19;20350;-75
2022/11/20 05:52:50;;;;;;;17.05;10.05;;;;;;;-4.06;100.00;101411.53;7376633;19;20514;-76
2022/11/20 05:55:23;;;;;;;20.02;10.80;;;;;;;-4.06;100.00;101408.97;7377303;19;20034;-75
2022/11/20 05:57:54;;;;;;;21.95;9.57;;;;;;;-4.06;100.00;101417.56;7378424;19;20015;-75
2022/11/20 06:00:24;;;;;;;20.88;9.63;;;;;;;-4.07;100.00;101404.63;7373467;19;20510;-75
2022/11/20 06:02:54;;;;;;;21.58;10.32;;;;;;;-4.07;100.00;101395.25;7374482;19;20010;-75
2022/11/20 06:05:23;;;;;;;19.73;8.73;;;;;;;-4.06;100.00;101391.94;7369380;19;20021;-75
2022/11/20 06:07:53;;;;;;;19.40;9.75;;;;;;;-4.05;100.00;101393.72;7373641;19;20487;-75
2022/11/20 06:10:25;;;;;;;28.50;11.52;;;;;;;-4.02;100.00;101390.50;7374563;19;20018;-75
2022/11/20 06:12:55;;;;;;;20.60;9.85;;;;;;;-4.01;100.00;101382.94;7372236;19;20006;-75
2022/11/20 06:15:24;;;;;;;24.13;11.88;;;;;;;-3.96;100.00;101383.31;7373625;19;20028;-75
2022/11/20 06:17:55;;;;;;;18.17;11.38;;;;;;;-3.95;100.00;101379.97;7373225;19;20018;-75
2022/11/20 06:20:24;;;;;;;17.92;9.23;;;;;;;-3.93;100.00;101380.09;7375445;19;20025;-75
2022/11/20 06:22:54;;;;;;;19.20;10.15;;;;;;;-3.92;100.00;101379.31;7372708;19;20021;-75
2022/11/20 06:25:26;;;;;;;17.33;9.23;;;;;;;-3.90;100.00;101380.34;7371128;19;20011;-75
2022/11/20 06:27:56;;;;;;;17.52;9.05;;;;;;;-3.87;100.00;101373.78;7372527;19;20010;-75
2022/11/20 06:30:25;;;;;;;19.60;10.80;;;;;;;-3.84;100.00;101376.59;7371808;19;20017;-75
2022/11/20 06:32:55;;;;;;;23.73;11.60;;;;;;;-3.82;100.00;101380.16;7373809;19;20018;-75
2022/11/20 06:35:25;;;;;;;20.92;9.98;;;;;;;-3.77;100.00;101373.75;7373716;19;20011;-75
2022/11/20 06:37:55;;;;;;;20.88;10.18;;;;;;;-3.71;100.00;101375.88;7375833;19;20010;-75
2022/11/20 06:40:27;;;;;;;19.42;10.40;;;;;;;-3.69;100.00;101375.22;7371506;19;20011;-75
2022/11/20 06:42:57;;;;;;;20.55;10.93;;;;;;;-3.62;100.00;101380.06;7373196;19;20026;-75
2022/11/20 06:45:26;;;;;;;23.02;10.30;;;;;;;-3.57;100.00;101374.41;7373510;19;20010;-74
2022/11/20 06:47:56;;;;;;;22.05;10.52;;;;;;;-3.53;100.00;101372.19;7374598;19;20014;-75
2022/11/20 06:50:25;;;;;;;20.73;10.60;;;;;;;-3.50;100.00;101363.84;7375619;19;20011;-75
2022/11/20 06:52:55;;;;;;;21.00;10.35;;;;;;;-3.48;100.00;101372.56;7370334;19;20018;-75
2022/11/20 06:55:27;;;;;;;23.38;9.63;;;;;;;-3.41;100.00;101367.13;7371825;19;20049;-75
2022/11/20 06:57:57;;;;;;;19.23;10.80;;;;;;;-3.27;100.00;101365.63;7373793;19;20011;-75
2022/11/20 07:00:27;;;;;;;21.45;9.98;;;;;;;-3.20;100.00;101358.50;7371139;19;20808;-74
2022/11/20 07:02:56;;;;;;;20.45;11.32;;;;;;;-3.10;100.00;101352.38;7373049;19;20015;-75
2022/11/20 07:05:26;;;;;;;17.15;10.40;;;;;;;-3.02;100.00;101349.59;7369186;19;20014;-75
2022/11/20 07:07:58;;;;;;;22.90;11.77;;;;;;;-3.01;100.00;101361.66;7374139;19;20593;-74
2022/11/20 07:10:30;;;;;;;23.95;10.93;;;;;;;-3.00;100.00;101350.59;7373511;19;20092;-74
2022/11/20 07:13:00;;;;;;;22.10;11.45;;;;;;;-2.98;100.00;101348.16;7377512;19;20018;-74
2022/11/20 07:15:29;;;;;;;25.20;12.02;;;;;;;-2.96;100.00;101350.06;7375505;19;20018;-75
2022/11/20 07:18:01;;;;;;;21.98;12.30;;;;;;;-2.89;100.00;101353.09;7371820;19;20098;-74
2022/11/20 07:20:31;;;;;;;22.05;10.77;;;;;;;-2.85;100.00;101360.22;7372786;19;20034;-74
2022/11/20 07:23:01;;;;;;;20.77;10.13;;;;;;;-2.83;100.00;101363.81;7372962;19;20014;-75
2022/11/20 07:25:33;;;;;;;21.80;10.88;;;;;;;-2.82;100.00;101363.03;7370873;19;20018;-74
2022/11/20 07:28:03;;;;;;;20.77;11.23;;;;;;;-2.80;100.00;101357.22;7370333;19;20303;-74
2022/11/20 07:30:33;;;;;;;23.17;10.35;;;;;;;-2.79;100.00;101356.44;7369680;19;20022;-74
2022/11/20 07:33:03;;;;;;;22.75;11.38;;;;;;;-2.75;100.00;101360.13;7369466;19;20019;-75
2022/11/20 07:35:32;;;;;;;22.88;11.05;;;;;;;-2.74;100.00;101355.13;7370714;19;20368;-74
2022/11/20 07:38:02;;;;;;;23.05;12.40;;;;;;;-2.69;100.00;101351.22;7373135;19;20019;-75
2022/11/20 07:40:34;;;;;;;22.60;10.77;;;;;;;-2.64;100.00;101359.25;7373804;19;20014;-75
2022/11/20 07:43:04;;;;;;;27.48;12.50;;;;;;;-2.61;100.00;101359.50;7371184;19;20097;-75
2022/11/20 07:45:34;;;;;;;24.02;12.25;;;;;;;-2.56;100.00;101362.41;7368416;19;20011;-75
2022/11/20 07:48:03;;;;;;;28.52;11.88;;;;;;;-2.52;100.00;101360.16;7369406;19;20043;-75
2022/11/20 07:50:33;;;;;;;25.08;13.18;;;;;;;-2.47;100.00;101360.50;7370074;19;20094;-75
2022/11/20 07:53:05;;;;;;;25.95;12.05;;;;;;;-2.41;100.00;101368.66;7366958;19;20020;-74
2022/11/20 07:55:37;;;;;;;23.38;11.82;;;;;;;-2.37;100.00;101366.41;7369340;19;20097;-74
2022/11/20 07:58:06;;;;;;;23.10;11.73;;;;;;;-2.31;100.00;101366.88;7371858;19;20074;-74
2022/11/20 08:00:36;;;;;;;30.70;12.60;;;;;;;-2.24;100.00;101363.06;7373231;19;20014;-76
2022/11/20 08:03:06;;;;;;;26.45;12.07;;;;;;;-2.17;100.00;101357.59;7369827;19;20022;-73
2022/11/20 08:05:37;;;;;;;25.65;13.05;;;;;;;-2.10;100.00;101357.25;7367466;19;20057;-73
2022/11/20 08:08:07;;;;;;;22.55;11.68;;;;;;;-2.04;100.00;101346.47;7368783;19;20014;-74
2022/11/20 08:10:39;;;;;;;22.77;12.30;;;;;;;-1.98;100.00;101341.78;7365840;19;20090;-73
2022/11/20 08:15:53;;;;;;;24.73;12.70;;;;;;;-1.85;100.00;101339.28;7370864;19;20458;-73
2022/11/20 08:18:22;;;;;;;29.35;13.18;;;;;;;-1.77;100.00;101337.25;7372435;19;20010;-76
2022/11/20 08:21:00;;;;;;;25.38;14.57;;;;;;;-1.76;100.00;101326.19;7373511;19;20687;-73
2022/11/20 08:23:30;;;;;;;26.52;12.77;;;;;;;-1.68;100.00;101331.06;7366635;19;20030;-74
2022/11/20 08:26:02;;;;;;;27.33;13.45;;;;;;;-1.60;100.00;101336.75;7368048;19;20025;-74
2022/11/20 08:28:32;;;;;;;23.23;13.90;;;;;;;-1.52;100.00;101334.72;7367407;19;20067;-74
2022/11/20 08:31:02;;;;;;;29.88;12.80;;;;;;;-1.49;100.00;101338.38;7368278;19;20015;-73
2022/11/20 08:33:32;;;;;;;25.70;13.48;;;;;;;-1.42;100.00;101342.28;7367423;19;20264;-74
2022/11/20 08:36:03;;;;;;;26.48;12.50;;;;;;;-1.39;100.00;101324.47;7372863;19;20024;-74
2022/11/20 08:38:33;;;;;;;29.55;13.70;;;;;;;-1.31;100.00;101341.34;7379647;19;20039;-74
2022/11/20 08:43:49;;;;;;;24.55;12.73;;;;;;;-1.25;100.00;101331.47;7377140;19;20026;-74
2022/11/20 08:46:18;;;;;;;30.23;13.90;;;;;;;-1.19;100.00;101331.88;7376130;19;20009;-74
2022/11/20 08:48:48;;;;;;;31.98;15.48;;;;;;;-1.16;100.00;101342.38;7377224;19;20011;-74
2022/11/20 08:51:18;;;;;;;26.33;13.13;;;;;;;-1.09;100.00;101338.53;7381226;19;20027;-74
2022/11/20 08:53:48;;;;;;;28.33;13.90;;;;;;;-1.03;100.00;101338.91;7374506;19;20028;-74
2022/11/20 08:56:21;;;;;;;21.83;12.27;;;;;;;-0.92;100.00;101337.97;7379542;19;20018;-74
2022/11/20 08:58:52;;;;;;;27.88;14.65;;;;;;;-0.93;100.00;101332.72;7378947;19;20010;-73
2022/11/20 09:01:42;;;;;;;27.90;14.52;;;;;;;-0.89;100.00;101329.53;7380142;19;20018;-76
2022/11/20 09:04:14;;;;;;;26.55;14.38;;;;;;;-0.88;100.00;101318.47;7380123;19;20015;-75
2022/11/20 09:06:43;;;;;;;31.45;14.90;;;;;;;-0.79;100.00;101308.75;7376285;19;20498;-75
2022/11/20 09:09:13;;;;;;;22.95;13.27;;;;;;;-0.74;100.00;101308.28;7376865;19;20015;-74
2022/11/20 09:11:45;;;;;;;27.38;15.18;;;;;;;-0.72;100.00;101317.00;7374454;19;20074;-75
2022/11/20 09:14:15;;;;;;;29.48;17.42;;;;;;;-0.64;100.00;101314.94;7376903;19;20014;-74
2022/11/20 09:16:47;;;;;;;31.00;16.73;;;;;;;-0.60;100.00;101309.19;7377589;19;20049;-73
2022/11/20 09:19:16;;;;;;;27.90;15.85;;;;;;;-0.56;100.00;101307.69;7373349;19;20010;-74
2022/11/20 09:22:04;;;;;;;31.95;15.00;;;;;;;-0.47;100.00;101300.56;7378137;19;20014;-74
2022/11/20 09:24:34;;;;;;;27.08;14.73;;;;;;;-0.37;100.00;101290.06;7377248;19;20030;-74
2022/11/20 09:27:09;;;;;;;25.52;14.98;;;;;;;-0.30;100.00;101292.22;7373278;19;20588;-73
2022/11/20 09:29:39;;;;;;;29.50;16.13;;;;;;;-0.27;100.00;101287.25;7375545;19;21238;-75
2022/11/20 09:32:09;;;;;;;28.65;15.43;;;;;;;-0.14;100.00;101278.63;7379389;19;20105;-74
2022/11/20 09:34:39;;;;;;;27.80;13.05;;;;;;;-0.11;100.00;101273.66;7381500;19;20018;-74
2022/11/20 09:37:09;;;;;;;36.72;19.30;;;;;;;-0.11;100.00;101265.94;7377852;19;20048;-75
2022/11/20 09:39:39;;;;;;;27.33;15.98;;;;;;;-0.07;100.00;101261.06;7382000;19;20023;-75
2022/11/20 09:42:28;;;;;;;30.02;16.40;;;;;;;-0.03;100.00;101256.97;7378624;19;20011;-75
2022/11/20 09:45:18;;;;;;;39.53;16.70;;;;;;;-0.02;100.00;101248.44;7376436;19;20014;-75
2022/11/20 09:48:01;;;;;;;32.47;16.30;;;;;;;0.05;100.00;101229.06;7374153;19;20424;-75
2022/11/20 09:50:34;;;;;;;29.95;16.17;;;;;;;0.09;100.00;101237.06;7380364;19;20521;-77
2022/11/20 09:53:16;;;;;;;35.30;16.02;;;;;;;0.16;100.00;101239.22;7375251;19;20010;-75
2022/11/20 09:55:45;;;;;;;30.40;16.92;;;;;;;0.23;100.00;101231.06;7378324;19;20868;-76
2022/11/20 09:58:32;;;;;;;34.72;16.52;;;;;;;0.23;100.00;101231.06;7377798;19;20046;-75
2022/11/20 10:01:08;;;;;;;33.25;16.48;;;;;;;0.24;100.00;101225.09;7376887;19;20049;-75
2022/11/20 10:03:45;;;;;;;37.28;16.88;;;;;;;0.26;100.00;101215.78;7377604;19;20130;-75
2022/11/20 10:06:19;;;;;;;35.67;17.40;;;;;;;0.32;100.00;101208.41;7374594;19;20015;-75
2022/11/20 10:08:57;;;;;;;36.10;17.42;;;;;;;0.32;100.00;101205.81;7374893;19;20014;-76
2022/11/20 10:11:38;;;;;;;36.22;18.30;;;;;;;0.37;100.00;101194.88;7373180;19;20025;-79
2022/11/20 10:14:21;;;;;;;35.40;16.90;;;;;;;0.40;100.00;101187.34;7376144;19;20014;-76
2022/11/20 10:17:02;;;;;;;28.05;14.20;;;;;;;0.46;100.00;101177.38;7375813;19;20017;-79
2022/11/20 10:19:57;;;;;;;34.95;15.63;;;;;;;0.47;100.00;101179.16;7374175;19;20102;-75
2022/11/20 10:22:40;;;;;;;37.60;17.35;;;;;;;0.51;100.00;101165.63;7373522;19;20743;-75
2022/11/20 10:25:16;;;;;;;36.50;18.55;;;;;;;0.64;100.00;101157.81;7379719;19;20010;-75
2022/11/20 10:28:13;;;;;;;30.23;14.52;;;;;;;0.59;100.00;101148.91;7372953;19;20050;-75
2022/11/20 10:30:48;;;;;;;26.75;14.65;;;;;;;0.59;100.00;101154.06;7373756;19;20021;-75
2022/11/20 10:33:22;;;;;;;30.13;13.18;;;;;;;0.59;100.00;101143.75;7376726;19;20022;-76
2022/11/20 10:35:56;;;;;;;31.35;16.52;;;;;;;0.63;100.00;101148.28;7374628;19;20019;-75
2022/11/20 10:38:30;;;;;;;30.23;16.20;;;;;;;0.64;100.00;101140.63;7372742;19;20460;-75
2022/11/20 10:43:47;;;;;;;32.70;17.13;;;;;;;0.64;100.00;101138.03;7374762;19;20030;-74
2022/11/20 10:46:22;;;;;;;32.00;17.08;;;;;;;0.70;100.00;101132.34;7376346;19;20011;-75
2022/11/20 10:48:53;;;;;;;29.27;15.00;;;;;;;0.70;100.00;101132.34;7376950;19;20377;-75
2022/11/20 10:51:38;;;;;;;32.70;15.43;;;;;;;0.75;100.00;101137.75;7376136;19;20054;-75
2022/11/20 10:54:21;;;;;;;34.38;16.08;;;;;;;0.79;100.00;101122.53;7371499;19;20019;-75
2022/11/20 10:56:54;;;;;;;40.35;17.67;;;;;;;0.82;100.00;101122.72;7375084;19;20075;-75
2022/11/20 10:59:47;;;;;;;36.80;17.95;;;;;;;0.89;100.00;101111.03;7368066;19;20018;-75
2022/11/20 11:02:24;;;;;;;34.95;17.40;;;;;;;0.97;100.00;101102.91;7368550;19;20010;-75
2022/11/20 11:04:55;;;;;;;44.40;18.63;;;;;;;1.08;100.00;101094.84;7366647;19;20061;-75
2022/11/20 11:07:30;;;;;;;33.83;16.85;;;;;;;1.11;100.00;101087.25;7367717;19;20014;-75
2022/11/20 11:10:00;;;;;;;33.50;16.90;;;;;;;1.13;100.00;101088.22;7365417;19;20025;-76
2022/11/20 11:12:31;;;;;;;38.25;17.33;;;;;;;1.18;100.00;101086.78;7364980;19;20017;-76
2022/11/20 11:15:00;;;;;;;42.65;17.85;;;;;;;1.19;100.00;101086.88;7368815;19;20079;-76
2022/11/20 11:17:37;;;;;;;30.90;16.90;;;;;;;1.23;100.00;101064.69;7367730;19;20019;-75
2022/11/20 11:20:16;;;;;;;41.38;20.80;;;;;;;1.16;100.00;101060.88;7370214;19;20081;-75
2022/11/20 11:22:48;;;;;;;40.22;19.70;;;;;;;1.23;100.00;101060.41;7374531;19;20010;-75
2022/11/20 11:25:28;;;;;;;38.20;18.77;;;;;;;1.35;100.00;101052.41;7373583;19;20011;-75
2022/11/20 11:28:01;;;;;;;34.83;18.13;;;;;;;1.36;100.00;101041.28;7370404;19;20083;-75
2022/11/20 11:30:43;;;;;;;48.30;21.25;;;;;;;1.35;100.00;101023.09;7374105;19;20254;-75
2022/11/20 11:33:23;;;;;;;41.38;20.95;;;;;;;1.34;100.00;101017.03;7370424;19;20014;-75
2022/11/20 11:35:56;;;;;;;40.85;19.15;;;;;;;1.40;100.00;101004.44;7371309;19;20011;-74
2022/11/20 11:38:30;;;;;;;;;;;;;;;1.45;100.00;100995.25;7373747;19;20451;-74
2022/11/20 11:41:00;;;;;;;39.50;18.75;;;;;;;1.46;100.00;100983.22;7370386;19;19935;-75